createdAt,value
2023-02-02T00:02:25.213Z,3.02
2023-02-02T00:05:01.656Z,3.05
2023-02-02T00:07:39.105Z,3.07
2023-02-02T00:10:17.647Z,3.07
2023-02-02T00:12:58.213Z,3.09
2023-02-02T00:15:34.646Z,3.11
2023-02-02T00:18:12.200Z,3.12
2023-02-02T00:20:49.551Z,3.15
2023-02-02T00:23:25.775Z,3.13
2023-02-02T00:26:02.096Z,3.12
2023-02-02T00:28:38.759Z,3.12
2023-02-02T00:31:15.290Z,3.09
2023-02-02T00:33:53.464Z,3.04
2023-02-02T00:36:29.827Z,2.99
2023-02-02T00:39:06.991Z,2.95
2023-02-02T00:41:43.493Z,2.89
2023-02-02T00:44:37.732Z,2.82
2023-02-02T00:47:14.261Z,2.76
2023-02-02T00:49:50.564Z,2.69
2023-02-02T00:52:26.925Z,2.64
2023-02-02T00:55:03.389Z,2.57
2023-02-02T00:57:39.759Z,2.51
2023-02-02T01:00:23.671Z,2.44
2023-02-02T01:03:04.496Z,2.39
2023-02-02T01:05:41.236Z,2.34
2023-02-02T01:08:17.754Z,2.31
2023-02-02T01:10:54.183Z,2.24
2023-02-02T01:13:32.594Z,2.14
2023-02-02T01:16:10.704Z,2.05
2023-02-02T01:18:47.052Z,2.01
2023-02-02T01:21:23.974Z,1.95
2023-02-02T01:24:00.607Z,1.92
2023-02-02T01:26:37.250Z,1.88
2023-02-02T01:29:13.771Z,1.82
2023-02-02T01:31:50.839Z,1.80
2023-02-02T01:34:27.661Z,1.75
2023-02-02T01:37:03.997Z,1.69
2023-02-02T01:39:40.755Z,1.67
2023-02-02T01:42:24.484Z,1.66
2023-02-02T01:45:29.281Z,1.62
2023-02-02T01:48:05.840Z,1.61
2023-02-02T01:50:42.506Z,1.61
2023-02-02T01:53:21.032Z,1.61
2023-02-02T01:55:58.431Z,1.60
2023-02-02T01:58:40.385Z,1.59
2023-02-02T02:01:18.440Z,1.59
2023-02-02T02:03:55.219Z,1.59
2023-02-02T02:06:33.154Z,1.61
2023-02-02T02:09:11.635Z,1.59
2023-02-02T02:11:47.883Z,1.61
2023-02-02T02:14:42.574Z,1.62
2023-02-02T02:17:44.826Z,1.62
2023-02-02T02:21:12.371Z,1.65
2023-02-02T02:25:13.530Z,1.67
2023-02-02T02:28:49.651Z,1.71
2023-02-02T02:32:07.996Z,1.73
2023-02-02T02:35:02.340Z,1.77
2023-02-02T02:37:50.420Z,1.80
2023-02-02T02:40:39.044Z,1.82
2023-02-02T02:43:25.223Z,1.83
2023-02-02T02:46:03.369Z,1.86
2023-02-02T02:48:40.470Z,1.88
2023-02-02T02:51:51.626Z,1.89
2023-02-02T02:54:37.934Z,1.90
2023-02-02T02:58:06.834Z,1.92
2023-02-02T03:01:01.148Z,1.94
2023-02-02T03:04:02.559Z,1.95
2023-02-02T03:06:52.728Z,1.97
2023-02-02T03:09:35.955Z,1.96
2023-02-02T03:12:13.458Z,1.96
2023-02-02T03:14:49.644Z,1.94
2023-02-02T03:17:28.228Z,1.92
2023-02-02T03:20:04.745Z,1.91
2023-02-02T03:22:41.097Z,1.91
2023-02-02T03:25:17.886Z,1.90
2023-02-02T03:27:54.403Z,1.89
2023-02-02T03:30:31.982Z,1.87
2023-02-02T03:33:10.214Z,1.88
2023-02-02T03:35:46.544Z,1.88
2023-02-02T03:38:22.836Z,1.88
2023-02-02T03:40:59.353Z,1.89
2023-02-02T03:43:35.695Z,1.91
2023-02-02T03:46:12.393Z,1.92
2023-02-02T03:48:48.749Z,1.93
2023-02-02T03:51:25.008Z,1.95
2023-02-02T03:54:01.385Z,1.96
2023-02-02T03:56:37.648Z,1.98
2023-02-02T03:59:13.995Z,1.97
2023-02-02T04:01:50.496Z,1.96
2023-02-02T04:04:26.830Z,1.95
2023-02-02T04:07:03.199Z,1.95
2023-02-02T04:09:39.534Z,1.95
2023-02-02T04:12:16.045Z,1.96
2023-02-02T04:14:52.384Z,1.98
2023-02-02T04:17:28.880Z,1.99
2023-02-02T04:20:06.316Z,2.01
2023-02-02T04:22:42.561Z,2.02
2023-02-02T04:25:19.101Z,2.02
2023-02-02T04:27:55.362Z,2.03
2023-02-02T04:30:31.854Z,2.04
2023-02-02T04:33:08.471Z,2.04
2023-02-02T04:35:45.340Z,2.05
2023-02-02T04:38:22.116Z,2.06
2023-02-02T04:40:58.628Z,2.08
2023-02-02T04:43:36.515Z,2.10
2023-02-02T04:46:13.215Z,2.11
2023-02-02T04:48:50.618Z,2.12
2023-02-02T04:51:26.822Z,2.14
2023-02-02T04:54:03.238Z,2.15
2023-02-02T04:56:40.098Z,2.17
2023-02-02T04:59:16.363Z,2.19
2023-02-02T05:01:52.736Z,2.20
2023-02-02T05:04:29.730Z,2.21
2023-02-02T05:07:06.188Z,2.21
2023-02-02T05:09:42.852Z,2.21
2023-02-02T05:12:19.212Z,2.21
2023-02-02T05:14:55.601Z,2.23
2023-02-02T05:17:32.613Z,2.26
2023-02-02T05:20:10.904Z,2.27
2023-02-02T05:22:49.653Z,2.27
2023-02-02T05:25:26.186Z,2.30
2023-02-02T05:28:03.145Z,2.30
2023-02-02T05:30:41.676Z,2.32
2023-02-02T05:33:19.842Z,2.33
2023-02-02T05:35:56.129Z,2.35
2023-02-02T05:38:32.429Z,2.37
2023-02-02T05:41:09.346Z,2.38
2023-02-02T05:43:45.614Z,2.39
2023-02-02T05:46:22.031Z,2.37
2023-02-02T05:48:59.596Z,2.39
2023-02-02T05:51:41.915Z,2.39
2023-02-02T05:54:20.569Z,2.39
2023-02-02T05:57:01.210Z,2.39
2023-02-02T05:59:37.558Z,2.39
2023-02-02T06:02:13.810Z,2.39
2023-02-02T06:04:50.174Z,2.39
2023-02-02T06:07:26.357Z,2.38
2023-02-02T06:10:02.757Z,2.41
2023-02-02T06:12:39.107Z,2.42
2023-02-02T06:15:17.157Z,2.41
2023-02-02T06:17:53.437Z,2.42
2023-02-02T06:20:30.359Z,2.42
2023-02-02T06:23:07.527Z,2.43
2023-02-02T06:25:43.877Z,2.44
2023-02-02T06:28:20.229Z,2.47
2023-02-02T06:30:56.663Z,2.50
2023-02-02T06:33:33.168Z,2.54
2023-02-02T06:36:11.375Z,2.58
2023-02-02T06:38:51.880Z,2.61
2023-02-02T06:41:28.970Z,2.63
2023-02-02T06:44:05.660Z,2.66
2023-02-02T06:46:42.174Z,2.68
2023-02-02T06:49:18.508Z,2.71
2023-02-02T06:51:54.817Z,2.78
2023-02-02T06:54:31.138Z,2.83
2023-02-02T06:57:09.423Z,2.87
2023-02-02T06:59:47.371Z,2.92
2023-02-02T07:02:24.070Z,2.97
2023-02-02T07:05:00.616Z,3.02
2023-02-02T07:07:39.424Z,3.07
2023-02-02T07:11:11.024Z,3.12
2023-02-02T07:13:13.413Z,3.12
2023-02-02T07:15:50.057Z,3.11
2023-02-02T07:18:26.399Z,3.11
2023-02-02T07:21:08.079Z,3.11
2023-02-02T07:23:44.245Z,3.13
2023-02-02T07:26:22.521Z,3.16
2023-02-02T07:28:59.015Z,3.18
2023-02-02T07:31:36.825Z,3.18
2023-02-02T07:34:13.625Z,3.20
2023-02-02T07:36:49.953Z,3.23
2023-02-02T07:39:26.311Z,3.26
2023-02-02T07:42:03.051Z,3.29
2023-02-02T07:44:41.533Z,3.30
2023-02-02T07:47:18.492Z,3.28
2023-02-02T07:49:54.858Z,3.26
2023-02-02T07:52:33.661Z,3.25
2023-02-02T07:55:14.683Z,3.23
2023-02-02T07:57:52.714Z,3.21
2023-02-02T08:00:30.566Z,3.19
2023-02-02T08:03:06.908Z,3.19
2023-02-02T08:05:43.597Z,3.17
2023-02-02T08:08:19.828Z,3.13
2023-02-02T08:10:57.167Z,3.11
2023-02-02T08:13:33.529Z,3.08
2023-02-02T08:16:12.586Z,3.04
2023-02-02T08:18:49.164Z,3.04
2023-02-02T08:21:25.755Z,2.99
2023-02-02T08:24:04.621Z,2.97
2023-02-02T08:26:41.195Z,2.93
2023-02-02T08:29:17.762Z,2.87
2023-02-02T08:31:54.867Z,2.83
2023-02-02T08:34:31.477Z,2.81
2023-02-02T08:37:08.079Z,2.75
2023-02-02T08:39:44.458Z,2.68
2023-02-02T08:42:20.918Z,2.63
2023-02-02T08:46:01.092Z,2.60
2023-02-02T08:48:10.448Z,2.58
2023-02-02T08:50:52.604Z,2.58
2023-02-02T08:53:30.423Z,2.60
2023-02-02T08:56:11.244Z,2.58
2023-02-02T08:58:52.990Z,2.58
2023-02-02T09:01:32.196Z,2.57
2023-02-02T09:04:14.413Z,2.52
2023-02-02T09:06:53.387Z,2.50
2023-02-02T09:09:30.097Z,2.51
2023-02-02T09:12:06.826Z,2.51
2023-02-02T09:14:43.964Z,2.54
2023-02-02T09:17:20.701Z,2.59
2023-02-02T09:19:57.837Z,2.63
2023-02-02T09:22:34.870Z,2.66
2023-02-02T09:25:12.675Z,2.68
2023-02-02T09:27:48.926Z,2.72
2023-02-02T09:30:26.019Z,2.74
2023-02-02T09:33:02.473Z,2.81
2023-02-02T09:35:38.838Z,2.84
2023-02-02T09:38:15.004Z,2.87
2023-02-02T09:40:51.365Z,2.89
2023-02-02T09:43:51.947Z,2.90
2023-02-02T09:46:46.012Z,2.91
2023-02-02T09:49:33.291Z,2.93
2023-02-02T09:52:17.717Z,2.92
2023-02-02T09:55:00.672Z,2.92
2023-02-02T09:57:46.520Z,2.90
2023-02-02T10:00:34.779Z,2.91
2023-02-02T10:03:23.605Z,2.90
2023-02-02T10:06:15.079Z,2.93
2023-02-02T10:08:58.488Z,2.92
2023-02-02T10:11:43.007Z,2.90
2023-02-02T10:14:29.206Z,2.84
2023-02-02T10:17:33.724Z,2.80
2023-02-02T10:20:28.354Z,2.77
2023-02-02T10:23:19.347Z,2.76
2023-02-02T10:26:10.155Z,2.77
2023-02-02T10:29:07.923Z,2.73
2023-02-02T10:31:59.500Z,2.68
2023-02-02T10:34:45.058Z,2.65
2023-02-02T10:37:42.443Z,2.64
2023-02-02T10:40:40.827Z,2.64
2023-02-02T10:43:54.949Z,2.67
2023-02-02T10:46:39.447Z,2.68
2023-02-02T10:49:32.165Z,2.70
2023-02-02T10:52:27.877Z,2.74
2023-02-02T10:55:22.630Z,2.78
2023-02-02T10:58:22.803Z,2.77
2023-02-02T11:01:03.765Z,2.78
2023-02-02T11:03:41.747Z,2.79
2023-02-02T11:06:36.065Z,2.80
2023-02-02T11:09:19.132Z,2.84
2023-02-02T11:12:06.446Z,2.86
2023-02-02T11:14:50.179Z,2.89
2023-02-02T11:17:29.348Z,2.93
2023-02-02T11:20:26.975Z,2.95
2023-02-02T11:23:18.973Z,2.96
2023-02-02T11:26:07.221Z,3.03
2023-02-02T11:28:43.841Z,3.14
2023-02-02T11:31:36.371Z,3.17
2023-02-02T11:34:25.181Z,3.18
2023-02-02T11:37:23.755Z,3.19
2023-02-02T11:40:31.037Z,3.21
2023-02-02T11:43:19.856Z,3.23
2023-02-02T11:46:04.144Z,3.26
2023-02-02T11:48:48.829Z,3.33
2023-02-02T11:51:31.602Z,3.40
2023-02-02T11:54:19.273Z,3.46
2023-02-02T11:57:00.165Z,3.54
2023-02-02T11:59:41.268Z,3.57
2023-02-02T12:02:35.495Z,3.61
2023-02-02T12:05:42.380Z,3.63
2023-02-02T12:08:19.165Z,3.64
2023-02-02T12:11:04.306Z,3.63
2023-02-02T12:14:03.112Z,3.65
2023-02-02T12:17:05.219Z,3.68
2023-02-02T12:20:20.548Z,3.72
2023-02-02T12:23:38.295Z,3.78
2023-02-02T12:26:34.030Z,3.84
2023-02-02T12:29:50.231Z,3.87
2023-02-02T12:32:55.039Z,3.84
2023-02-02T12:36:10.503Z,3.85
2023-02-02T12:39:20.127Z,3.85
2023-02-02T12:42:25.195Z,3.83
2023-02-02T12:45:44.255Z,3.82
2023-02-02T12:48:44.683Z,3.78
2023-02-02T12:51:42.508Z,3.79
2023-02-02T12:54:46.965Z,3.80
2023-02-02T12:57:46.717Z,3.82
2023-02-02T13:00:51.701Z,3.81
2023-02-02T13:04:01.155Z,3.79
2023-02-02T13:07:42.329Z,3.77
2023-02-02T13:10:31.616Z,3.78
2023-02-02T13:13:16.235Z,3.79
2023-02-02T13:16:00.529Z,3.79
2023-02-02T13:18:43.861Z,3.83
2023-02-02T13:21:28.373Z,3.85
2023-02-02T13:24:09.219Z,3.88
2023-02-02T13:26:50.070Z,3.90
2023-02-02T13:29:47.444Z,3.91
2023-02-02T13:32:33.948Z,3.91
2023-02-02T13:35:22.971Z,3.95
2023-02-02T13:38:19.078Z,3.98
2023-02-02T13:40:58.659Z,4.04
2023-02-02T13:43:58.075Z,4.12
2023-02-02T13:46:44.509Z,4.21
2023-02-02T13:49:29.197Z,4.26
2023-02-02T13:52:49.375Z,4.32
2023-02-02T13:56:00.549Z,4.36
2023-02-02T13:59:04.585Z,4.39
2023-02-02T14:01:42.694Z,4.39
2023-02-02T14:04:30.560Z,4.36
2023-02-02T14:07:10.728Z,4.37
2023-02-02T14:09:51.206Z,4.35
2023-02-02T14:12:37.292Z,4.31
2023-02-02T14:15:15.799Z,4.27
2023-02-02T14:17:59.924Z,4.25
2023-02-02T14:20:53.486Z,4.21
2023-02-02T14:23:57.742Z,4.19
2023-02-02T14:26:52.671Z,4.17
2023-02-02T14:30:22.098Z,4.16
2023-02-02T14:33:34.521Z,4.14
2023-02-02T14:36:18.157Z,4.13
2023-02-02T14:39:17.262Z,4.12
2023-02-02T14:42:53.987Z,4.12
2023-02-02T14:45:35.576Z,4.09
2023-02-02T14:48:19.461Z,4.05
2023-02-02T14:51:00.132Z,4.04
2023-02-02T14:53:40.255Z,4.03
2023-02-02T14:56:19.036Z,4.01
2023-02-02T14:59:03.580Z,3.99
2023-02-02T15:01:42.028Z,3.99
2023-02-02T15:04:32.749Z,4.00
2023-02-02T15:07:55.743Z,3.99
2023-02-02T15:11:29.029Z,3.97
2023-02-02T15:14:20.047Z,3.95
2023-02-02T15:16:59.141Z,3.95
2023-02-02T15:19:42.354Z,3.93
2023-02-02T15:22:35.809Z,3.95
2023-02-02T15:25:26.041Z,3.95
2023-02-02T15:28:13.473Z,3.93
2023-02-02T15:30:59.757Z,3.90
2023-02-02T15:33:44.017Z,3.89
2023-02-02T15:36:26.896Z,3.89
2023-02-02T15:39:12.188Z,3.87
2023-02-02T15:42:11.483Z,3.85
2023-02-02T15:44:48.039Z,3.82
2023-02-02T15:47:37.703Z,3.82
2023-02-02T15:50:23.402Z,3.78
2023-02-02T15:53:00.487Z,3.77
2023-02-02T15:55:39.184Z,3.75
2023-02-02T15:58:32.068Z,3.74
2023-02-02T16:01:20.733Z,3.72
2023-02-02T16:04:14.554Z,3.68
2023-02-02T16:06:52.281Z,3.66
2023-02-02T16:09:37.036Z,3.65
2023-02-02T16:12:23.692Z,3.65
2023-02-02T16:15:00.551Z,3.63
2023-02-02T16:17:37.680Z,3.62
2023-02-02T16:20:19.171Z,3.60
2023-02-02T16:22:58.777Z,3.57
2023-02-02T16:25:44.073Z,3.57
2023-02-02T16:28:24.188Z,3.56
2023-02-02T16:31:04.917Z,3.53
2023-02-02T16:33:46.602Z,3.54
2023-02-02T16:36:28.460Z,3.52
2023-02-02T16:39:15.840Z,3.51
2023-02-02T16:41:52.508Z,3.49
2023-02-02T16:44:48.815Z,3.47
2023-02-02T16:47:44.601Z,3.42
2023-02-02T16:50:35.623Z,3.40
2023-02-02T16:53:26.435Z,3.37
2023-02-02T16:56:03.483Z,3.36
2023-02-02T16:58:47.143Z,3.35
2023-02-02T17:01:23.695Z,3.33
2023-02-02T17:04:00.488Z,3.32
2023-02-02T17:06:51.997Z,3.31
2023-02-02T17:09:41.383Z,3.31
2023-02-02T17:12:34.934Z,3.30
2023-02-02T17:15:35.820Z,3.29
2023-02-02T17:18:13.399Z,3.29
2023-02-02T17:20:56.354Z,3.28
2023-02-02T17:23:38.867Z,3.28
2023-02-02T17:26:17.045Z,3.26
2023-02-02T17:28:57.935Z,3.24
2023-02-02T17:31:34.490Z,3.19
2023-02-02T17:34:17.005Z,3.15
2023-02-02T17:36:54.398Z,3.11
2023-02-02T17:39:30.910Z,3.07
2023-02-02T17:42:07.934Z,3.04
2023-02-02T17:44:44.401Z,3.01
2023-02-02T17:47:21.202Z,2.98
2023-02-02T17:49:57.617Z,2.97
2023-02-02T17:52:34.123Z,2.95
2023-02-02T17:55:20.731Z,2.93
2023-02-02T17:57:57.956Z,2.93
2023-02-02T18:00:35.217Z,2.92
2023-02-02T18:03:18.279Z,2.93
2023-02-02T18:05:54.902Z,2.93
2023-02-02T18:08:32.104Z,2.93
2023-02-02T18:11:10.881Z,2.92
2023-02-02T18:13:48.114Z,2.89
2023-02-02T18:16:24.445Z,2.88
2023-02-02T18:19:03.219Z,2.86
2023-02-02T18:21:39.839Z,2.84
2023-02-02T18:24:17.936Z,2.81
2023-02-02T18:26:54.437Z,2.79
2023-02-02T18:29:31.003Z,2.78
2023-02-02T18:32:08.574Z,2.79
2023-02-02T18:34:45.772Z,2.78
2023-02-02T18:37:22.527Z,2.77
2023-02-02T18:39:59.247Z,2.78
2023-02-02T18:42:36.356Z,2.78
2023-02-02T18:45:17.536Z,2.77
2023-02-02T18:47:54.197Z,2.77
2023-02-02T18:50:30.599Z,2.76
2023-02-02T18:53:07.372Z,2.75
2023-02-02T18:55:44.744Z,2.75
2023-02-02T18:58:21.060Z,2.74
2023-02-02T19:00:57.397Z,2.73
2023-02-02T19:03:34.274Z,2.71
2023-02-02T19:06:30.212Z,2.70
2023-02-02T19:09:07.436Z,2.68
2023-02-02T19:11:47.511Z,2.67
2023-02-02T19:14:28.374Z,2.65
2023-02-02T19:17:25.243Z,2.63
2023-02-02T19:20:22.309Z,2.61
2023-02-02T19:23:08.653Z,2.60
2023-02-02T19:25:51.486Z,2.59
2023-02-02T19:28:32.530Z,2.59
2023-02-02T19:31:16.178Z,2.59
2023-02-02T19:33:55.717Z,2.61
2023-02-02T19:36:33.389Z,2.61
2023-02-02T19:39:21.707Z,2.59
2023-02-02T19:42:02.833Z,2.58
2023-02-02T19:44:42.078Z,2.58
2023-02-02T19:47:33.816Z,2.59
2023-02-02T19:50:23.723Z,2.59
2023-02-02T19:53:02.444Z,2.57
2023-02-02T19:55:44.340Z,2.56
2023-02-02T19:58:26.211Z,2.55
2023-02-02T20:01:11.497Z,2.53
2023-02-02T20:03:48.596Z,2.51
2023-02-02T20:06:30.664Z,2.49
2023-02-02T20:09:12.179Z,2.50
2023-02-02T20:11:51.517Z,2.49
2023-02-02T20:14:36.932Z,2.49
2023-02-02T20:17:32.972Z,2.47
2023-02-02T20:20:28.141Z,2.47
2023-02-02T20:23:07.234Z,2.45
2023-02-02T20:25:45.643Z,2.42
2023-02-02T20:28:43.444Z,2.40
2023-02-02T20:31:25.495Z,2.32
2023-02-02T20:34:02.187Z,2.24
2023-02-02T20:36:44.141Z,2.18
2023-02-02T20:39:36.522Z,2.12
2023-02-02T20:42:13.261Z,2.06
2023-02-02T20:44:49.893Z,2.04
2023-02-02T20:47:26.607Z,2.01
2023-02-02T20:50:04.267Z,1.97
2023-02-02T20:52:40.823Z,1.95
2023-02-02T20:55:17.427Z,1.91
2023-02-02T20:57:53.807Z,1.89
2023-02-02T21:00:30.687Z,1.87
2023-02-02T21:03:07.193Z,1.85
2023-02-02T21:05:43.563Z,1.83
2023-02-02T21:08:20.090Z,1.80
2023-02-02T21:10:56.357Z,1.76
2023-02-02T21:13:32.700Z,1.70
2023-02-02T21:16:10.214Z,1.65
2023-02-02T21:18:47.519Z,1.60
2023-02-02T21:21:24.351Z,1.54
2023-02-02T21:24:01.157Z,1.49
2023-02-02T21:26:37.507Z,1.43
2023-02-02T21:29:13.886Z,1.37
2023-02-02T21:31:50.233Z,1.32
2023-02-02T21:34:27.308Z,1.28
2023-02-02T21:37:03.917Z,1.24
2023-02-02T21:39:46.722Z,1.22
2023-02-02T21:42:26.025Z,1.19
2023-02-02T21:45:33.785Z,1.16
2023-02-02T21:48:30.729Z,1.13
2023-02-02T21:51:25.338Z,1.12
2023-02-02T21:54:15.695Z,1.10
2023-02-02T21:56:53.400Z,1.11
2023-02-02T21:59:37.807Z,1.14
2023-02-02T22:02:44.806Z,1.16
2023-02-02T22:05:30.212Z,1.20
2023-02-02T22:08:24.668Z,1.21
2023-02-02T22:11:01.397Z,1.25
2023-02-02T22:13:39.398Z,1.28
2023-02-02T22:16:21.483Z,1.31
2023-02-02T22:18:59.433Z,1.35
2023-02-02T22:21:36.647Z,1.38
2023-02-02T22:24:16.996Z,1.42
2023-02-02T22:26:53.242Z,1.47
2023-02-02T22:29:35.655Z,1.50
2023-02-02T22:32:11.951Z,1.54
2023-02-02T22:34:48.838Z,1.57
2023-02-02T22:37:25.090Z,1.61
2023-02-02T22:40:01.401Z,1.64
2023-02-02T22:42:37.637Z,1.67
2023-02-02T22:45:15.555Z,1.70
2023-02-02T22:47:52.433Z,1.71
2023-02-02T22:50:32.062Z,1.73
2023-02-02T22:53:08.810Z,1.76
2023-02-02T22:55:45.176Z,1.80
2023-02-02T22:58:21.455Z,1.81
2023-02-02T23:00:57.757Z,1.84
2023-02-02T23:03:34.165Z,1.84
2023-02-02T23:06:10.685Z,1.82
2023-02-02T23:08:46.913Z,1.81
2023-02-02T23:11:23.230Z,1.78
2023-02-02T23:13:59.744Z,1.73
2023-02-02T23:16:36.302Z,1.70
2023-02-02T23:19:12.588Z,1.66
2023-02-02T23:21:48.983Z,1.62
2023-02-02T23:24:25.746Z,1.63
2023-02-02T23:27:02.202Z,1.61
2023-02-02T23:29:38.574Z,1.60
2023-02-02T23:32:14.925Z,1.57
2023-02-02T23:34:51.233Z,1.54
2023-02-02T23:37:27.695Z,1.52
2023-02-02T23:40:03.995Z,1.54
2023-02-02T23:42:40.412Z,1.54
2023-02-02T23:45:17.486Z,1.54
2023-02-02T23:47:54.062Z,1.53
2023-02-02T23:50:30.957Z,1.52
2023-02-02T23:53:07.660Z,1.52
2023-02-02T23:55:46.634Z,1.54
2023-02-02T23:58:22.980Z,1.54
